• Join FlightAware (Why Join?)
  • Login
  • US Flag 
08:15AM EST


 

Airport Tracker/Info


-or-


 

Live Flight TrackerFlight Track Log ✈ FIV521 ✈ 17-Apr-2013 ✈ KBOS - KHEZ

Flight Track Log - Related Links

Times and Time Zones

All times are in EDT time to prevent confusion due to time zone crossing. See the FIV521 flight status page for this flight to view local times or setup timezone preferences in your user account.

Time Position Orientation Groundspeed Altitude Reporting Facility
EDT Latitude Longitude Course Direction KTS MPH feet Rate Location/Type
12:39PM 42.3667 -70.9833 90° East 165 190 1,000  Level KA90
12:40PM 42.3667 -70.9333 90° East 162 186 3,600 1,560 Climbing KA90
12:41PM 42.3833 -70.8500 75° East 211 243 4,000 600 Climbing KA90
12:42PM 42.3925 -70.7900 78° East 249 287 4,800 2,100 Climbing Boston Center
12:43PM 42.3436 -70.7211 134° Southeast 218 251 7,800 2,580 Climbing Boston Center
12:44PM 42.2647 -70.7400 190° South 205 236 9,900 2,280 Climbing Boston Center
12:45PM 42.2139 -70.8283 232° Southwest 219 252 12,500 2,040 Climbing Boston Center
12:46PM 42.1944 -70.9353 256° West 263 303 14,000 840 Climbing Boston Center
12:47PM 42.1958 -71.0417 271° West 301 346 14,200 1,560 Climbing Boston Center
12:48PM 42.1931 -71.1594 268° West 307 353 17,200 2,640 Climbing Boston Center
12:49PM 42.1983 -71.2658 274° West 282 325 19,500 2,160 Climbing Boston Center
12:50PM 42.1953 -71.3697 268° West 282 325 21,500 1,920 Climbing Boston Center
12:51PM 42.1922 -71.4844 268° West 294 338 23,500 2,100 Climbing Boston Center
12:52PM 42.1867 -71.5939 266° West 299 344 25,700 1,920 Climbing Boston Center
12:53PM 42.1853 -71.6892 269° West 305 351 27,300 1,380 Climbing Boston Center
12:54PM 42.1842 -71.8322 269° West 316 364 28,600 1,620 Climbing Boston Center
12:55PM 42.1806 -71.9553 268° West 321 369 30,700 2,040 Climbing Boston Center
12:56PM 42.1789 -72.0675 269° West 321 369 32,800 1,980 Climbing Boston Center
12:57PM 42.1750 -72.1739 267° West 307 353 34,700 1,620 Climbing Boston Center
12:58PM 42.1731 -72.2833 269° West 297 342 36,000 600 Climbing Boston Center
12:59PM 42.1692 -72.4008 267° West 297 342 36,000  Level Boston Center
01:00PM 42.1669 -72.5017 268° West 312 359 36,000 60 Level Boston Center
01:01PM 42.1628 -72.6389 268° West 332 382 36,200 780 Climbing Boston Center
01:02PM 42.1394 -72.7619 256° West 343 395 37,600 840 Climbing Boston Center
01:03PM 42.0767 -72.8653 231° Southwest 337 388 38,000 180 Climbing Boston Center
01:04PM 42.0136 -72.9708 231° Southwest 350 403 38,000  Level Boston Center
01:05PM 41.9422 -73.0847 230° Southwest 377 434 38,000  Level Boston Center
01:06PM 41.8458 -73.1675 213° Southwest 396 456 38,000  Level Boston Center
01:07PM 41.7283 -73.2633 211° Southwest 409 471 38,000  Level Boston Center
01:08PM 41.6381 -73.3511 216° Southwest 415 478 38,000  Level Boston Center
01:10PM 41.4819 -73.5931 229° Southwest 390 449 38,000  Level New York Center
01:11PM 41.4106 -73.7006 228° Southwest 390 449 38,000  Level New York Center
01:12PM 41.3411 -73.8081 229° Southwest 395 455 38,000  Level New York Center
01:13PM 41.2697 -73.9153 228° Southwest 400 460 38,000  Level New York Center
01:14PM 41.1981 -74.0250 229° Southwest 400 460 38,000  Level New York Center
01:15PM 41.1303 -74.1344 231° Southwest 400 460 38,000  Level New York Center
01:16PM 41.0586 -74.2411 228° Southwest 395 455 38,000  Level New York Center
01:17PM 40.9908 -74.3503 231° Southwest 395 455 38,000  Level New York Center
01:18PM 40.9228 -74.4592 230° Southwest 395 455 38,000  Level New York Center
01:19PM 40.8547 -74.5653 230° Southwest 390 449 38,000  Level New York Center
01:20PM 40.7867 -74.6739 230° Southwest 390 449 38,000  Level New York Center
01:21PM 40.7183 -74.7822 230° Southwest 390 449 38,000  Level New York Center
01:22PM 40.6522 -74.8906 231° Southwest 390 449 38,000  Level New York Center
01:23PM 40.5839 -74.9983 230° Southwest 390 449 38,000  Level New York Center
01:24PM 40.5175 -75.1061 231° Southwest 390 449 38,000  Level New York Center
01:25PM 40.4467 -75.2136 229° Southwest 390 449 38,000  Level New York Center
01:26PM 40.3800 -75.3211 231° Southwest 390 449 38,000  Level New York Center
01:27PM 40.3111 -75.4308 231° Southwest 390 449 38,000  Level New York Center
01:28PM 40.2425 -75.5350 229° Southwest 390 449 38,000  Level New York Center
01:29PM 40.1817 -75.6475 235° Southwest 390 449 38,000  Level New York Center
01:30PM 40.1247 -75.7631 237° Southwest 385 443 38,000  Level New York Center
01:31PM 40.0678 -75.8758 237° Southwest 385 443 38,000  Level New York Center
01:32PM 40.0064 -75.9906 235° Southwest 385 443 38,000  Level New York Center
01:33PM 39.9469 -76.1078 237° Southwest 385 443 38,000  Level New York Center
01:35PM 39.8194 -76.3586 237° Southwest 377 434 38,000  Level Washington Center
01:36PM 39.7647 -76.4742 238° Southwest 382 440 38,000  Level Washington Center
01:37PM 39.7011 -76.5894 234° Southwest 387 445 38,000  Level Washington Center
01:38PM 39.6397 -76.7017 235° Southwest 393 452 38,000  Level Washington Center
01:39PM 39.5803 -76.8167 236° Southwest 393 452 38,000  Level Washington Center
01:40PM 39.5208 -76.9286 235° Southwest 388 447 38,000  Level Washington Center
01:41PM 39.4403 -77.0400 227° Southwest 394 453 38,000  Level Washington Center
01:42PM 39.3600 -77.1217 218° Southwest 422 486 38,000  Level Washington Center
01:43PM 39.2650 -77.2214 219° Southwest 422 486 38,000  Level Washington Center
01:44PM 39.1992 -77.3192 229° Southwest 397 457 38,000  Level Washington Center
01:45PM 39.1161 -77.4347 227° Southwest 407 468 38,000  Level Washington Center
01:46PM 39.0500 -77.5294 228° Southwest 407 468 38,000  Level Washington Center
01:47PM 38.9689 -77.6447 228° Southwest 407 468 38,000  Level Washington Center
01:49PM 38.8256 -77.8433 227° Southwest 412 474 38,000  Level Washington Center
01:50PM 38.7419 -77.9606 228° Southwest 407 468 38,000  Level Washington Center
01:51PM 38.6736 -78.0514 226° Southwest 412 474 38,000  Level Washington Center
01:52PM 38.5919 -78.1681 228° Southwest 412 474 38,000  Level Washington Center
01:53PM 38.5250 -78.2642 228° Southwest 412 474 38,000  Level Washington Center
01:54PM 38.4411 -78.3778 227° Southwest 412 474 38,000  Level Washington Center
01:55PM 38.3678 -78.4808 228° Southwest 412 474 38,000  Level Washington Center
01:56PM 38.2989 -78.5733 227° Southwest 402 463 38,000  Level Washington Center
01:57PM 38.2211 -78.6839 228° Southwest 402 463 38,000  Level Washington Center
01:58PM 38.1539 -78.7764 227° Southwest 397 457 38,000  Level Washington Center
01:59PM 38.0806 -78.8733 226° Southwest 397 457 38,000  Level Washington Center
02:00PM 38.0047 -78.9756 227° Southwest 392 451 38,000  Level Washington Center
02:01PM 37.9222 -79.0850 226° Southwest 387 445 38,000  Level Washington Center
02:02PM 37.8606 -79.1928 234° Southwest 387 445 38,000  Level Washington Center
02:03PM 37.8050 -79.3083 239° Southwest 387 445 38,000  Level Washington Center
02:04PM 37.7492 -79.4211 238° Southwest 387 445 38,000  Level Washington Center
02:05PM 37.6958 -79.5208 236° Southwest 376 433 38,000  Level Washington Center
02:06PM 37.6356 -79.6461 239° Southwest 384 442 38,000  Level Washington Center
02:07PM 37.5842 -79.7456 237° Southwest 384 442 38,000  Level Washington Center
02:08PM 37.5211 -79.8731 238° Southwest 388 447 38,000  Level Washington Center
02:09PM 37.4650 -79.9850 238° Southwest 394 453 38,000  Level Washington Center
02:10PM 37.4133 -80.0842 237° Southwest 394 453 38,000  Level Washington Center
02:12PM 37.3119 -80.2736 236° Southwest 400 460 38,000  Level Atlanta Center
02:13PM 37.2531 -80.3886 237° Southwest 400 460 38,000  Level Atlanta Center
02:14PM 37.1939 -80.5008 237° Southwest 400 460 38,000  Level Atlanta Center
02:15PM 37.1386 -80.6100 238° Southwest 395 455 38,000  Level Atlanta Center
02:16PM 37.0850 -80.7111 236° Southwest 395 455 38,000  Level Atlanta Center
02:17PM 37.0294 -80.8200 237° Southwest 390 449 38,000  Level Atlanta Center
02:18PM 36.9700 -80.9369 238° Southwest 390 449 38,000  Level Atlanta Center
02:19PM 36.9064 -81.0586 237° Southwest 390 449 38,000  Level Atlanta Center
02:20PM 36.8486 -81.1700 237° Southwest 390 449 38,000  Level Atlanta Center
02:21PM 36.7883 -81.2783 235° Southwest 390 449 38,000  Level Atlanta Center
02:22PM 36.7406 -81.3783 239° Southwest 380 437 38,000  Level Atlanta Center
02:23PM 36.6844 -81.4864 237° Southwest 380 437 38,000  Level Atlanta Center
02:24PM 36.6242 -81.5994 236° Southwest 385 443 38,000  Level Atlanta Center
02:25PM 36.5639 -81.7075 235° Southwest 385 443 38,000  Level Atlanta Center
02:26PM 36.5075 -81.8200 238° Southwest 385 443 38,000  Level Atlanta Center
02:27PM 36.4447 -81.9328 235° Southwest 390 449 38,000  Level Atlanta Center
02:28PM 36.3842 -82.0453 236° Southwest 390 449 38,000  Level Atlanta Center
02:29PM 36.3233 -82.1575 236° Southwest 401 461 38,000  Level Atlanta Center
02:30PM 36.2625 -82.2697 236° Southwest 401 461 38,000 180 Level Atlanta Center
02:31PM 36.1953 -82.3922 236° Southwest 401 461 38,400 960 Climbing Atlanta Center
02:32PM 36.1383 -82.4961 236° Southwest 395 455 40,000 780 Climbing Atlanta Center
02:33PM 36.0811 -82.6025 236° Southwest 380 437 40,000  Level Atlanta Center
02:34PM 36.0219 -82.7089 236° Southwest 380 437 40,000  Level Atlanta Center
02:35PM 35.9644 -82.8150 236° Southwest 380 437 40,000  Level Atlanta Center
02:36PM 35.9050 -82.9211 235° Southwest 380 437 40,000  Level Atlanta Center
02:37PM 35.8475 -83.0267 236° Southwest 380 437 40,000  Level Atlanta Center
02:38PM 35.7881 -83.1350 236° Southwest 380 437 40,000  Level Atlanta Center
02:39PM 35.7386 -83.2303 237° Southwest 373 429 40,000  Level Atlanta Center
02:40PM 35.6786 -83.3383 236° Southwest 373 429 40,000  Level Atlanta Center
02:41PM 35.6167 -83.4461 235° Southwest 379 436 40,000  Level Atlanta Center
02:42PM 35.5567 -83.5536 236° Southwest 384 442 40,000  Level Atlanta Center
02:43PM 35.4967 -83.6611 236° Southwest 384 442 40,000  Level Atlanta Center
02:44PM 35.4342 -83.7661 234° Southwest 384 442 40,000  Level Atlanta Center
02:45PM 35.3739 -83.8758 236° Southwest 384 442 40,000  Level Atlanta Center
02:46PM 35.3114 -83.9853 235° Southwest 384 442 40,000  Level Atlanta Center
02:47PM 35.2508 -84.0922 235° Southwest 384 442 40,000  Level Atlanta Center
02:48PM 35.1883 -84.2014 235° Southwest 390 449 40,000  Level Atlanta Center
02:49PM 35.1233 -84.3131 235° Southwest 395 455 40,000  Level Atlanta Center
02:50PM 35.0606 -84.4244 235° Southwest 400 460 40,000  Level Atlanta Center
02:51PM 34.9975 -84.5333 235° Southwest 400 460 40,000  Level Atlanta Center
02:52PM 34.9364 -84.6417 235° Southwest 400 460 40,000  Level Atlanta Center
02:53PM 34.8733 -84.7478 234° Southwest 400 460 40,000  Level Atlanta Center
02:54PM 34.8122 -84.8558 235° Southwest 400 460 40,000  Level Atlanta Center
02:55PM 34.7467 -84.9639 234° Southwest 400 460 40,000  Level Atlanta Center
02:56PM 34.6811 -85.0794 235° Southwest 400 460 40,000  Level Atlanta Center
02:57PM 34.6175 -85.1872 234° Southwest 392 451 40,000  Level Atlanta Center
02:58PM 34.5539 -85.2922 234° Southwest 397 457 40,000  Level Atlanta Center
02:59PM 34.4942 -85.3972 235° Southwest 397 457 40,000  Level Atlanta Center
03:00PM 34.4306 -85.4994 233° Southwest 397 457 40,000  Level Atlanta Center
03:01PM 34.3708 -85.6092 237° Southwest 391 450 40,000  Level Atlanta Center
03:02PM 34.3089 -85.7111 234° Southwest 391 450 40,000  Level Atlanta Center
03:03PM 34.2533 -85.8031 234° Southwest 385 443 40,000  Level Atlanta Center
03:04PM 34.1850 -85.9094 232° Southwest 378 435 40,000  Level Atlanta Center
03:05PM 34.1250 -86.0136 235° Southwest 378 435 40,000  Level Atlanta Center
03:06PM 34.0628 -86.1150 233° Southwest 378 435 40,000  Level Atlanta Center
03:07PM 34.0006 -86.2164 234° Southwest 378 435 40,000  Level Atlanta Center
03:08PM 33.9381 -86.3197 234° Southwest 378 435 40,000  Level Atlanta Center
03:09PM 33.8756 -86.4208 233° Southwest 378 435 40,000  Level Atlanta Center
03:10PM 33.8131 -86.5239 234° Southwest 378 435 40,000  Level Atlanta Center
03:11PM 33.7483 -86.6297 234° Southwest 378 435 40,000  Level Atlanta Center
03:12PM 33.6856 -86.7300 233° Southwest 378 435 40,000  Level Atlanta Center
03:13PM 33.6206 -86.8328 233° Southwest 378 435 40,000  Level Atlanta Center
03:14PM 33.5578 -86.9381 234° Southwest 383 441 40,000  Level Atlanta Center
03:15PM 33.4925 -87.0428 233° Southwest 383 441 40,000  Level Atlanta Center
03:16PM 33.4294 -87.1453 234° Southwest 383 441 40,000  Level Atlanta Center
03:17PM 33.3642 -87.2472 233° Southwest 389 448 40,000  Level Atlanta Center
03:18PM 33.3011 -87.3494 234° Southwest 389 448 40,000  Level Atlanta Center
03:20PM 33.1828 -87.5425 234° Southwest 389 448 40,000  Level Memphis Center
03:21PM 33.1183 -87.6439 233° Southwest 390 449 40,000  Level Memphis Center
03:22PM 33.0556 -87.7425 233° Southwest 390 449 40,000  Level Memphis Center
03:23PM 32.9911 -87.8508 235° Southwest 390 449 40,000  Level Memphis Center
03:24PM 32.9344 -87.9414 233° Southwest 390 449 40,000  Level Memphis Center
03:25PM 32.8694 -88.0447 233° Southwest 390 449 40,000  Level Memphis Center
03:26PM 32.8278 -88.1594 247° West 385 443 40,000  Level Memphis Center
03:27PM 32.7858 -88.2742 247° West 385 443 40,000  Level Memphis Center
03:28PM 32.7397 -88.3914 245° Southwest 385 443 40,000  Level Memphis Center
03:29PM 32.6978 -88.5083 247° West 385 443 40,000  Level Memphis Center
03:30PM 32.6556 -88.6225 246° West 385 443 40,000  Level Memphis Center
03:31PM 32.6111 -88.7369 245° Southwest 385 443 40,000  Level Memphis Center
03:32PM 32.5667 -88.8561 246° West 385 443 40,000 -180 Level Memphis Center
03:33PM 32.5181 -88.9850 246° West 385 443 39,700 -900 Descending Memphis Center
03:34PM 32.4775 -89.0964 247° West 380 437 38,300 -1,680 Descending Memphis Center
03:35PM 32.4328 -89.2078 245° Southwest 380 437 36,400 -1,920 Descending Memphis Center
03:36PM 32.3919 -89.3192 247° West 380 437 34,500 -2,040 Descending Memphis Center
03:37PM 32.3469 -89.4353 245° Southwest 380 437 32,400 -2,100 Descending Memphis Center
03:38PM 32.3019 -89.5511 245° Southwest 380 437 30,400 -2,040 Descending Memphis Center
03:39PM 32.2567 -89.6694 246° West 385 443 28,400 -2,100 Descending Memphis Center
03:40PM 32.2114 -89.7925 247° West 397 457 26,200 -2,160 Descending Memphis Center
03:41PM 32.1617 -89.9156 245° Southwest 403 464 24,100 -2,100 Descending Memphis Center
03:42PM 32.1161 -90.0336 246° West 403 464 22,100 -2,040 Descending Memphis Center
03:43PM 32.0706 -90.1489 245° Southwest 398 458 20,100 -1,980 Descending Memphis Center
03:44PM 32.0289 -90.2594 246° West 385 443 18,200 -1,560 Descending Memphis Center
03:45PM 31.9850 -90.3672 244° Southwest 379 436 17,000 -1,200 Descending Memphis Center
03:46PM 31.9411 -90.4772 245° Southwest 379 436 15,800 -1,980 Descending Memphis Center
03:48PM 31.8469 -90.7158 245° Southwest 354 407 10,500 -2,040 Descending Houston Center
03:49PM 31.8125 -90.8003 244° Southwest 286 329 8,900 -1,500 Descending Houston Center
03:50PM 31.7831 -90.8775 246° West 275 316 7,500 -1,380 Descending Houston Center
03:51PM 31.7492 -90.9611 245° Southwest 271 312 6,100 -780 Descending Houston Center
03:52PM 31.7214 -91.0361 246° West 262 302 6,000 -240 Descending Houston Center
03:53PM 31.6931 -91.0986 242° Southwest 233 268 5,700 -300 Descending Houston Center